Burlington International Airport Burlington US
ICAO: KBTV
IATA: BTV
Category: Medium
Scheduled Services: Yes

Elevation: 335 ft
TransAlt. 18000 ft.

Airport Communications:
APP/DEP:121.1
ATIS:123.8
CTAF:118.3
GND:121.9
ANG OPS:125.125
ARNG OPS:41.2
RDO:122.2
TWR:118.3
UNICOM:122.95

KBTV Zoom In..

Runways:

(A) RW 01 length 3611 ft width 75 ft
---- / hdg 6

(B) RW 15 length 8320 ft width 150 ft
ILS 110.30 / hdg 146

(C) RW 19 length 3611 ft width 75 ft
---- / hdg 186

(D) RW 33 length 8320 ft width 150 ft
ILS 110.30 / hdg 326

Location; KBTV
Day. 20 / Time. 01.54 Zulu
* Altimeter: 30.09
* Temperature: 22° c. 71.6°f.
* Wind from: 070° Speed 05 kn.
Dewpoint: 13° c.
Visibility: 10 Statute Miles.
Clouds: Clear (automated report).

KBTV 200154Z 07005KT 10SM CLR 22/13 A3009 RMK AO2 SLP188 T02170133


Wind From 070°
Speed 05 kn.

 
 
jpsmedia.com for Web Design worldairports.se 2018   terms of use